Time;durP1;ratioP1;P1;durP2;ratioP2;P2;SDS_P1;SDS_P2;PMS_P1;PMS_P2;Temp;Humidity;BMP_temperature;BMP_pressure;BME280_temperature;BME280_humidity;BME280_pressure;Samples;Min_cycle;Max_cycle;Signal;HPM_P1;HPM_P2
2022/05/11 00:01:29;;;;;;;;;9.25;8.00;;;;;22.66;42.37;100684.81;5074359;27;46208;-64
2022/05/11 00:03:59;;;;;;;;;7.00;7.00;;;;;22.56;42.18;100667.81;5073827;27;45492;-64
2022/05/11 00:06:26;;;;;;;;;9.00;9.00;;;;;22.61;42.54;100682.50;5078459;27;46091;-63
2022/05/11 00:08:54;;;;;;;;;9.50;8.50;;;;;22.57;42.45;100688.25;5093325;27;45539;-65
2022/05/11 00:11:19;;;;;;;;;10.50;10.00;;;;;22.56;42.68;100684.72;5094289;27;45531;-64
2022/05/11 00:13:46;;;;;;;;;9.75;8.25;;;;;22.54;42.67;100678.69;5092592;27;45426;-65
2022/05/11 00:16:12;;;;;;;;;7.25;7.25;;;;;22.52;42.62;100686.00;5073945;27;45587;-65
2022/05/11 00:18:38;;;;;;;;;12.00;11.25;;;;;22.51;42.89;100673.53;5073309;27;45584;-65
2022/05/11 00:21:04;;;;;;;;;10.00;10.00;;;;;22.47;42.82;100667.59;5073418;27;45433;-63
2022/05/11 00:23:31;;;;;;;;;11.50;8.75;;;;;22.49;42.82;100670.16;5073599;27;45463;-65
2022/05/11 00:25:57;;;;;;;;;11.75;10.25;;;;;22.41;42.79;100656.56;5073350;27;45632;-65
2022/05/11 00:28:22;;;;;;;;;9.75;9.75;;;;;22.47;43.07;100664.94;5072915;27;45493;-64
2022/05/11 00:30:48;;;;;;;;;10.75;10.75;;;;;22.47;43.07;100661.41;5093808;27;45602;-64
2022/05/11 00:33:15;;;;;;;;;7.50;7.50;;;;;22.45;43.17;100655.31;5094043;27;45518;-65
2022/05/11 00:35:43;;;;;;;;;12.25;10.25;;;;;22.46;42.99;100649.84;5083356;27;45587;-65
2022/05/11 00:38:10;;;;;;;;;7.33;7.00;;;;;22.43;43.12;100646.53;5072801;27;46227;-65
2022/05/11 00:40:54;;;;;;;;;9.00;9.00;;;;;22.40;43.25;100638.75;5073385;28;45523;-64
2022/05/11 00:43:38;;;;;;;;;9.33;9.33;;;;;22.40;43.27;100638.75;5082677;27;45527;-64
2022/05/11 00:46:28;;;;;;;;;7.50;7.50;;;;;22.39;43.13;100643.28;5097112;27;45476;-64
2022/05/11 00:51:49;;;;;;;;;10.67;10.67;;;;;22.30;43.60;100629.78;5097534;27;45416;-64
2022/05/11 00:54:19;;;;;;;;;9.00;9.00;;;;;22.28;43.63;100624.59;5097327;27;45503;-64
2022/05/11 00:56:49;;;;;;;;;12.00;10.33;;;;;22.31;43.50;100628.84;5095740;27;45524;-64
2022/05/11 00:59:21;;;;;;;;;11.67;10.00;;;;;22.28;43.45;100622.75;5080330;27;46414;-64
2022/05/11 01:01:47;;;;;;;;;13.67;11.33;;;;;22.25;43.90;100625.69;5076472;27;45458;-64
2022/05/11 01:04:17;;;;;;;;;7.67;6.33;;;;;22.23;43.63;100622.28;5076540;27;45487;-63
2022/05/11 01:06:43;;;;;;;;;10.67;9.67;;;;;22.16;43.63;100604.97;5076707;27;45847;-64
2022/05/11 01:09:10;;;;;;;;;12.33;12.33;;;;;22.17;43.85;100613.91;5076248;28;46053;-65
2022/05/11 01:11:44;;;;;;;;;13.33;13.33;;;;;22.13;43.63;100602.56;5076285;27;45488;-65
2022/05/11 01:14:12;;;;;;;;;13.33;13.33;;;;;22.12;43.77;100606.22;5080344;27;45487;-64
2022/05/11 01:16:40;;;;;;;;;14.33;11.33;;;;;22.05;44.12;100603.19;5096872;27;45505;-65
2022/05/11 01:19:07;;;;;;;;;10.67;10.67;;;;;22.00;44.19;100600.09;5081276;27;45476;-66
2022/05/11 01:21:47;;;;;;;;;7.33;6.33;;;;;22.00;44.06;100601.88;5076320;27;45462;-66
2022/05/11 01:24:33;;;;;;;;;11.00;10.00;;;;;21.99;44.08;100593.00;5076506;27;45623;-65
2022/05/11 01:26:58;;;;;;;;;8.00;8.00;;;;;22.01;44.11;100592.91;5096484;27;45522;-65
2022/05/11 01:29:24;;;;;;;;;10.00;8.33;;;;;21.99;44.10;100592.16;5096598;27;45492;-65
2022/05/11 01:31:50;;;;;;;;;11.33;9.67;;;;;21.89;44.20;100585.88;5096628;27;45472;-65
2022/05/11 01:34:22;;;;;;;;;9.00;8.67;;;;;21.94;43.93;100594.38;5089578;27;45737;-65
2022/05/11 01:36:50;;;;;;;;;10.67;10.67;;;;;21.93;44.19;100590.84;5076339;28;45465;-65
2022/05/11 01:39:16;;;;;;;;;10.67;9.00;;;;;21.92;44.19;100585.59;5088174;27;45509;-65
2022/05/11 01:41:44;;;;;;;;;10.00;9.00;;;;;21.91;44.37;100589.28;5093728;27;45472;-65
2022/05/11 01:44:13;;;;;;;;;8.00;8.00;;;;;21.91;44.04;100590.13;5096386;27;45481;-65
2022/05/11 01:46:43;;;;;;;;;11.00;11.00;;;;;21.84;44.48;100589.78;5096147;27;45513;-65
2022/05/11 01:49:08;;;;;;;;;11.33;11.33;;;;;21.81;44.75;100589.19;5096015;27;46045;-65
2022/05/11 01:51:34;;;;;;;;;10.33;10.33;;;;;21.81;44.89;100589.19;5095769;27;45529;-65
2022/05/11 01:53:59;;;;;;;;;12.33;12.33;;;;;21.82;44.85;100593.56;5087743;27;45592;-65
2022/05/11 01:56:26;;;;;;;;;10.33;10.33;;;;;21.81;44.82;100591.84;5075918;28;45524;-65
2022/05/11 01:58:52;;;;;;;;;8.00;8.00;;;;;21.77;44.88;100593.94;5075799;28;46302;-64
2022/05/11 02:01:20;;;;;;;;;9.00;8.00;;;;;21.76;44.70;100589.59;5075406;27;46047;-65
2022/05/11 02:03:46;;;;;;;;;7.67;7.67;;;;;21.73;44.52;100591.63;5076960;27;45584;-65
2022/05/11 02:08:56;;;;;;;;;9.00;9.00;;;;;21.66;45.19;100591.31;5075556;28;45779;-65
2022/05/11 02:11:21;;;;;;;;;8.33;7.67;;;;;21.66;45.17;100583.28;5075546;27;45484;-65
2022/05/11 02:13:47;;;;;;;;;10.00;10.00;;;;;21.62;45.14;100581.81;5074201;28;45528;-65
2022/05/11 02:16:13;;;;;;;;;9.33;9.33;;;;;21.62;45.08;100588.00;5091030;27;45488;-65
2022/05/11 02:18:39;;;;;;;;;10.67;10.67;;;;;21.60;45.65;100586.44;5095473;27;46245;-65
2022/05/11 02:21:07;;;;;;;;;7.67;7.67;;;;;21.58;45.49;100583.06;5095629;27;45445;-64
2022/05/11 02:23:32;;;;;;;;;9.00;9.00;;;;;21.53;45.76;100586.09;5095692;27;45469;-64
2022/05/11 02:25:58;;;;;;;;;8.33;8.33;;;;;21.47;45.83;100578.59;5095912;27;45625;-64
2022/05/11 02:28:23;;;;;;;;;9.00;8.00;;;;;21.45;46.11;100575.16;5095706;27;45969;-64
2022/05/11 02:30:51;;;;;;;;;14.00;9.00;;;;;21.44;45.90;100577.97;5081356;27;45492;-64
2022/05/11 02:33:17;;;;;;;;;8.67;8.67;;;;;21.44;46.02;100577.97;5075363;28;45427;-64
2022/05/11 02:35:44;;;;;;;;;7.00;7.00;;;;;21.44;45.75;100575.28;5076340;27;45581;-64
2022/05/11 02:38:16;;;;;;;;;4.00;4.00;;;;;21.45;46.05;100575.16;5090117;27;45681;-64
2022/05/11 02:40:43;;;;;;;;;10.67;10.67;;;;;21.44;46.07;100575.28;5095481;27;45506;-64
2022/05/11 02:43:10;;;;;;;;;12.00;10.00;;;;;21.43;46.21;100570.91;5094847;27;45500;-64
2022/05/11 02:45:39;;;;;;;;;8.00;8.00;;;;;21.41;46.05;100573.72;5095522;27;45492;-64
2022/05/11 02:48:07;;;;;;;;;8.33;8.33;;;;;21.40;45.92;100572.03;5079782;27;46172;-64
2022/05/11 02:50:55;;;;;;;;;11.33;8.00;;;;;21.35;45.89;100574.19;5074886;27;45477;-64
2022/05/11 02:53:22;;;;;;;;;8.33;8.33;;;;;21.33;46.17;100560.06;5075050;27;45502;-64
2022/05/11 02:55:50;;;;;;;;;10.00;9.00;;;;;21.33;46.34;100565.41;5073261;28;45566;-64
2022/05/11 02:58:18;;;;;;;;;11.67;10.00;;;;;21.27;46.29;100566.78;5094746;27;45596;-64
2022/05/11 03:00:47;;;;;;;;;9.00;9.00;;;;;21.25;46.54;100566.06;5086091;27;45594;-64
2022/05/11 03:03:14;;;;;;;;;9.67;8.33;;;;;21.23;46.46;100559.13;5073638;28;45462;-64
2022/05/11 03:05:41;;;;;;;;;6.67;6.67;;;;;21.16;46.55;100553.41;5080852;27;45489;-64
2022/05/11 03:08:07;;;;;;;;;11.00;9.00;;;;;21.10;46.97;100564.63;5072610;27;46129;-64
2022/05/11 03:10:32;;;;;;;;;9.67;9.67;;;;;21.07;46.63;100570.22;5079107;27;45599;-63
2022/05/11 03:12:58;;;;;;;;;10.67;8.00;;;;;21.04;47.35;100557.94;5074625;27;45491;-64
2022/05/11 03:15:24;;;;;;;;;10.00;10.00;;;;;21.05;47.42;100569.47;5074544;28;45720;-63
2022/05/11 03:17:50;;;;;;;;;11.33;9.00;;;;;21.06;46.71;100573.84;5074431;28;46045;-64
2022/05/11 03:20:17;;;;;;;;;10.67;9.00;;;;;21.09;46.98;100565.56;5074405;27;45492;-64
2022/05/11 03:22:43;;;;;;;;;13.33;13.33;;;;;21.09;46.89;100565.56;5074300;28;45508;-64
2022/05/11 03:25:09;;;;;;;;;12.67;9.00;;;;;21.07;46.79;100565.72;5074338;27;45556;-64
2022/05/11 03:27:34;;;;;;;;;4.67;4.00;;;;;21.06;47.21;100552.44;5074281;28;46009;-64
2022/05/11 03:29:59;;;;;;;;;13.00;10.33;;;;;21.09;47.19;100558.44;5080773;27;45470;-65
2022/05/11 03:35:10;;;;;;;;;12.00;11.00;;;;;21.11;47.13;100564.47;5094759;27;45577;-64
2022/05/11 03:37:37;;;;;;;;;8.00;8.00;;;;;20.98;47.35;100546.88;5094580;27;46535;-65
2022/05/11 03:40:05;;;;;;;;;9.67;9.67;;;;;21.07;47.15;100562.19;5087044;27;45772;-65
2022/05/11 03:42:31;;;;;;;;;11.33;9.33;;;;;21.07;47.35;100564.88;5081166;27;45571;-65
2022/05/11 03:45:15;;;;;;;;;9.00;7.67;;;;;21.06;47.28;100560.47;5094756;27;45500;-65
2022/05/11 03:47:40;;;;;;;;;12.67;11.33;;;;;;;;5094574;27;46252;-64
2022/05/11 03:50:07;;;;;;;;;9.67;9.67;;;;;21.04;47.23;100555.25;5089322;27;45452;-65
2022/05/11 03:52:33;;;;;;;;;10.33;10.33;;;;;21.04;47.28;100551.75;5094472;27;45605;-64
2022/05/11 03:54:58;;;;;;;;;11.00;11.00;;;;;21.07;47.06;100555.00;5088112;27;45578;-67
2022/05/11 03:57:24;;;;;;;;;10.33;9.33;;;;;21.02;47.46;100559.88;5073779;28;46342;-66
2022/05/11 03:59:49;;;;;;;;;9.33;9.33;;;;;20.94;47.51;100541.75;5082159;27;45401;-65
2022/05/11 04:02:14;;;;;;;;;11.00;9.00;;;;;21.02;47.15;100559.03;5094375;27;45482;-64
2022/05/11 04:04:40;;;;;;;;;12.00;12.00;;;;;21.00;47.40;100558.28;5094151;27;46210;-64
2022/05/11 04:07:05;;;;;;;;;9.33;9.33;;;;;21.00;47.22;100563.66;5094027;27;45485;-64
2022/05/11 04:09:30;;;;;;;;;9.33;7.67;;;;;20.97;47.52;100556.72;5087985;27;45502;-64
2022/05/11 04:11:57;;;;;;;;;12.67;12.67;;;;;20.96;47.81;100555.03;5073775;28;45508;-64
2022/05/11 04:14:22;;;;;;;;;13.33;13.33;;;;;20.95;47.79;100556.84;5073936;28;45490;-64
2022/05/11 04:16:53;;;;;;;;;13.67;13.67;;;;;20.96;47.86;100558.53;5073477;27;46049;-64
2022/05/11 04:19:18;;;;;;;;;14.67;13.00;;;;;20.97;47.80;100567.41;5083446;27;45599;-65
2022/05/11 04:21:44;;;;;;;;;13.00;13.00;;;;;20.96;47.75;100571.06;5083602;27;45479;-65
2022/05/11 04:24:09;;;;;;;;;12.67;12.67;;;;;20.92;47.84;100566.91;5094016;27;46231;-65
2022/05/11 04:26:35;;;;;;;;;11.00;11.00;;;;;20.89;47.65;100568.00;5093923;27;46630;-65
2022/05/11 04:29:01;;;;;;;;;11.00;11.00;;;;;20.92;48.06;100570.44;5092426;27;45554;-64
2022/05/11 04:31:26;;;;;;;;;14.00;14.00;;;;;20.91;48.10;100568.75;5081712;27;45499;-65
2022/05/11 04:33:51;;;;;;;;;15.67;15.33;;;;;20.88;47.85;100569.00;5082902;27;45543;-65
2022/05/11 04:36:17;;;;;;;;;15.00;15.00;;;;;20.85;47.73;100558.56;5093737;27;45541;-66
2022/05/11 04:38:42;;;;;;;;;16.00;16.00;;;;;20.83;47.96;100571.19;5075979;27;45581;-65
2022/05/11 04:41:07;;;;;;;;;15.33;15.33;;;;;20.83;48.14;100560.50;5073294;28;45437;-65
2022/05/11 04:43:33;;;;;;;;;10.33;10.33;;;;;20.82;48.07;100569.50;5073016;27;45470;-65
2022/05/11 04:45:58;;;;;;;;;14.33;13.67;;;;;20.83;47.73;100571.19;5072966;27;45497;-65
2022/05/11 04:48:24;;;;;;;;;14.33;14.33;;;;;20.83;47.95;100567.66;5073184;27;45692;-65
2022/05/11 04:50:50;;;;;;;;;18.33;18.33;;;;;20.82;47.74;100563.28;5088959;27;45382;-65
2022/05/11 04:53:17;;;;;;;;;15.00;15.00;;;;;20.82;48.08;100561.47;5093846;27;45651;-65
2022/05/11 04:55:44;;;;;;;;;16.00;15.00;;;;;20.80;48.00;100565.25;5093659;27;46085;-65
2022/05/11 04:58:09;;;;;;;;;17.00;17.00;;;;;20.78;47.50;100564.50;5092903;27;45623;-65
2022/05/11 05:00:35;;;;;;;;;14.00;14.00;;;;;20.80;47.76;100565.25;5090582;27;45652;-64
2022/05/11 05:03:04;;;;;;;;;15.00;15.00;;;;;20.77;47.84;100554.75;5084104;27;45509;-64
2022/05/11 05:05:30;;;;;;;;;12.67;12.67;;;;;20.72;47.81;100560.50;5072514;27;45552;-64
2022/05/11 05:07:55;;;;;;;;;17.00;15.67;;;;;20.66;48.24;100561.81;5085483;27;45539;-65
2022/05/11 05:10:21;;;;;;;;;15.00;15.00;;;;;20.65;47.71;100556.59;5093571;27;45465;-65
2022/05/11 05:12:47;;;;;;;;;16.33;16.33;;;;;20.64;47.58;100558.41;5093494;27;45475;-65
2022/05/11 05:15:14;;;;;;;;;18.00;17.00;;;;;20.70;47.92;100567.78;5091731;27;47404;-65
2022/05/11 05:17:40;;;;;;;;;17.00;16.33;;;;;20.73;48.14;100560.34;5086815;27;45584;-65
2022/05/11 05:20:07;;;;;;;;;15.33;14.00;;;;;20.76;47.60;100561.09;5082803;27;45574;-65
2022/05/11 05:22:33;;;;;;;;;14.00;14.00;;;;;20.74;47.97;100561.22;5088718;27;45777;-64
2022/05/11 05:24:58;;;;;;;;;18.67;15.67;;;;;20.64;47.55;100563.75;5086907;27;46379;-65
2022/05/11 05:27:23;;;;;;;;;17.67;17.67;;;;;20.63;47.94;100558.53;5082291;27;48795;-65
2022/05/11 05:32:35;;;;;;;;;12.67;12.67;;;;;20.61;47.68;100558.66;5089505;27;45564;-64
2022/05/11 05:35:01;;;;;;;;;14.00;14.00;;;;;20.59;47.70;100567.75;5095441;27;45510;-65
2022/05/11 05:37:26;;;;;;;;;12.00;12.00;;;;;20.59;47.69;100571.28;5096034;27;45503;-65
2022/05/11 05:39:51;;;;;;;;;17.00;13.67;;;;;20.61;47.38;100565.84;5095829;27;45579;-65
2022/05/11 05:42:22;;;;;;;;;14.33;14.33;;;;;20.60;47.09;100567.63;5096511;27;45470;-65
2022/05/11 05:44:48;;;;;;;;;17.67;16.33;;;;;20.60;47.13;100561.44;5085811;27;45581;-66
2022/05/11 05:47:15;;;;;;;;;14.67;13.00;;;;;20.65;46.70;100562.78;5075676;27;45421;-65
2022/05/11 05:49:40;;;;;;;;;14.00;13.33;;;;;20.68;46.10;100565.22;5076422;27;45787;-65
2022/05/11 05:52:07;;;;;;;;;15.67;13.67;;;;;20.68;46.02;100567.03;5077225;27;45638;-67
2022/05/11 05:54:36;;;;;;;;;12.00;12.00;;;;;20.73;46.06;100576.38;5078257;27;45930;-66
2022/05/11 05:57:01;;;;;;;;;13.33;11.67;;;;;20.76;46.19;100580.66;5096114;27;45547;-67
2022/05/11 05:59:26;;;;;;;;;13.33;12.33;;;;;20.75;46.06;100576.28;5096300;27;45488;-65
2022/05/11 06:01:52;;;;;;;;;12.67;12.67;;;;;20.75;45.56;100578.94;5090429;27;45659;-65
2022/05/11 06:04:18;;;;;;;;;15.00;12.00;;;;;20.70;45.53;100578.47;5086106;27;45525;-65
2022/05/11 06:06:43;;;;;;;;;12.00;12.00;;;;;20.70;45.73;100573.13;5077247;27;45559;-66
2022/05/11 06:09:09;;;;;;;;;12.67;11.67;;;;;20.69;45.53;100582.13;5077087;27;46186;-65
2022/05/11 06:11:38;;;;;;;;;12.00;12.00;;;;;20.69;45.34;100584.78;5082987;27;45590;-64
2022/05/11 06:14:04;;;;;;;;;11.00;11.00;;;;;20.71;45.62;100589.03;5075030;28;45437;-67
2022/05/11 06:16:31;;;;;;;;;9.33;9.33;;;;;20.77;45.11;100584.16;5075091;28;45513;-63
2022/05/11 06:18:57;;;;;;;;;9.67;9.67;;;;;20.77;44.76;100581.50;5074160;28;45496;-64
2022/05/11 06:21:23;;;;;;;;;12.33;12.33;;;;;20.68;45.27;100569.69;5075562;27;45510;-65
2022/05/11 06:23:48;;;;;;;;;8.00;8.00;;;;;20.76;45.06;100580.66;5075230;27;45510;-66
2022/05/11 06:26:16;;;;;;;;;10.00;8.67;;;;;20.75;44.61;100576.28;5078719;27;45726;-65
2022/05/11 06:28:42;;;;;;;;;11.67;9.33;;;;;20.73;44.70;100571.03;5075352;27;45569;-64
2022/05/11 06:31:09;;;;;;;;;10.67;10.67;;;;;20.75;44.35;100576.28;5075020;27;45481;-65
2022/05/11 06:33:35;;;;;;;;;11.33;11.00;;;;;20.78;44.54;100581.38;5074892;28;46305;-63
2022/05/11 06:36:06;;;;;;;;;12.33;12.33;;;;;20.79;44.70;100572.38;5074908;28;45443;-66
2022/05/11 06:38:31;;;;;;;;;8.00;7.67;;;;;20.76;44.33;100574.44;5091299;27;45384;-66
2022/05/11 06:41:05;;;;;;;;;11.33;9.00;;;;;20.79;44.33;100576.88;5082955;27;45490;-66
2022/05/11 06:43:31;;;;;;;;;8.00;8.00;;;;;20.77;44.37;100574.34;5083994;27;46205;-66
2022/05/11 06:45:56;;;;;;;;;11.33;11.33;;;;;20.81;44.14;100580.28;5077789;27;45500;-66
2022/05/11 06:48:22;;;;;;;;;7.00;7.00;;;;;20.81;43.88;100577.63;5079018;27;45685;-69
2022/05/11 06:50:47;;;;;;;;;12.00;12.00;;;;;20.84;44.18;100569.34;5095576;27;45532;-66
2022/05/11 06:53:13;;;;;;;;;7.00;7.00;;;;;20.89;44.05;100565.34;5095613;27;45440;-67
2022/05/11 07:01:09;;;;;;;;;8.00;8.00;;;;;21.07;43.31;100580.91;5089780;27;45488;-65
2022/05/11 07:03:34;;;;;;;;;9.33;9.33;;;;;21.09;43.21;100577.16;5076127;27;45419;-66
2022/05/11 07:06:00;;;;;;;;;7.00;7.00;;;;;21.01;41.99;100573.34;5079280;27;45446;-65
2022/05/11 07:08:33;;;;;;;;;13.33;9.33;;;;;20.81;42.00;100564.25;5099155;27;45485;-65
2022/05/11 07:13:42;;;;;;;;;8.00;8.00;;;;;20.81;41.37;100567.78;5083265;27;45406;-64
2022/05/11 07:16:07;;;;;;;;;6.00;6.00;;;;;20.87;41.43;100577.97;5073947;27;45464;-64
2022/05/11 07:18:33;;;;;;;;;6.00;6.00;;;;;20.91;41.38;100570.59;5073678;28;45577;-65
2022/05/11 07:20:58;;;;;;;;;5.00;5.00;;;;;20.93;40.85;100572.16;5073673;28;45528;-63
2022/05/11 07:23:25;;;;;;;;;7.00;6.00;;;;;20.99;40.59;100578.84;5073745;27;46890;-64
2022/05/11 07:25:50;;;;;;;;;6.00;4.33;;;;;21.02;40.86;100580.44;5073684;28;45460;-64
2022/05/11 07:28:16;;;;;;;;;6.00;6.00;;;;;21.04;40.76;100573.13;5072349;28;45474;-64
2022/05/11 07:30:45;;;;;;;;;7.00;7.00;;;;;21.04;40.43;100578.50;5073673;28;45536;-64
2022/05/11 07:33:11;;;;;;;;;5.00;5.00;;;;;21.04;40.91;100579.34;5071321;28;45534;-64
2022/05/11 07:35:36;;;;;;;;;5.00;5.00;;;;;21.08;41.36;100579.94;5072949;27;45466;-65
2022/05/11 07:38:10;;;;;;;;;6.00;6.00;;;;;21.10;41.27;100578.00;5073796;28;45469;-65
2022/05/11 07:40:36;;;;;;;;;7.67;7.00;;;;;21.12;41.63;100578.72;5073952;28;45429;-64
2022/05/11 07:43:02;;;;;;;;;6.33;5.00;;;;;21.09;41.77;100570.91;5073267;27;45923;-64
2022/05/11 07:45:27;;;;;;;;;6.00;6.00;;;;;21.04;41.68;100576.66;5073682;28;45426;-64
2022/05/11 07:47:52;;;;;;;;;7.00;7.00;;;;;21.05;41.33;100578.34;5073494;28;45490;-64
2022/05/11 07:50:18;;;;;;;;;5.67;5.67;;;;;21.07;41.68;100572.88;5073677;28;45481;-64
2022/05/11 07:52:46;;;;;;;;;6.00;6.00;;;;;21.10;41.65;100580.66;5071628;28;47156;-66
2022/05/11 07:55:15;;;;;;;;;7.67;7.00;;;;;21.01;41.45;100584.06;5073083;28;45495;-64
2022/05/11 08:00:25;;;;;;;;;7.33;5.00;;;;;21.09;42.28;100584.28;5072957;27;45517;-64
2022/05/11 08:02:51;;;;;;;;;7.00;7.00;;;;;21.08;42.31;100587.94;5072949;28;46095;-64
2022/05/11 08:05:18;;;;;;;;;12.00;9.33;;;;;21.11;42.03;100582.34;5072949;27;45501;-65
2022/05/11 08:07:49;;;;;;;;;7.33;7.33;;;;;21.15;41.84;100589.16;5073164;28;45584;-64
2022/05/11 08:10:37;;;;;;;;;11.67;11.67;;;;;21.19;41.78;100588.78;5073212;27;45447;-64
2022/05/11 08:13:05;;;;;;;;;7.67;7.67;;;;;21.24;41.62;100583.06;5073045;27;46316;-65
2022/05/11 08:15:32;;;;;;;;;6.00;6.00;;;;;21.27;41.12;100582.81;5072971;28;45502;-63
2022/05/11 08:17:58;;;;;;;;;6.00;6.00;;;;;21.27;40.78;100574.78;5073193;28;45518;-64
2022/05/11 08:20:28;;;;;;;;;4.75;4.75;;;;;21.30;40.53;100573.69;5073145;27;45675;-65
2022/05/11 08:22:55;;;;;;;;;5.25;5.25;;;;;21.32;40.38;100563.72;5072649;27;45567;-65
2022/05/11 08:25:24;;;;;;;;;5.00;4.00;;;;;21.37;40.16;100565.09;5072585;28;45509;-65
2022/05/11 08:27:51;;;;;;;;;5.00;4.00;;;;;21.42;39.94;100574.59;5073024;28;45598;-65
2022/05/11 08:33:23;;;;;;;;;6.00;4.00;;;;;21.50;38.88;100577.47;5072891;28;45476;-65
2022/05/11 08:35:52;;;;;;;;;3.33;3.33;;;;;21.50;39.05;100574.81;5072770;27;45589;-65
2022/05/11 08:38:20;;;;;;;;;3.00;3.00;;;;;21.52;39.38;100571.03;5072552;27;45479;-66
2022/05/11 08:40:53;;;;;;;;;5.00;5.00;;;;;21.42;39.54;100567.41;5070955;28;45439;-65
2022/05/11 08:43:19;;;;;;;;;4.50;4.50;;;;;21.53;39.34;100585.25;5072322;27;45497;-65
2022/05/11 08:45:52;;;;;;;;;5.00;4.00;;;;;21.54;39.21;100581.59;5070801;28;45459;-65
2022/05/11 08:48:28;;;;;;;;;2.25;2.25;;;;;21.55;36.52;100576.13;5072646;27;45540;-65
2022/05/11 08:50:53;;;;;;;;;2.50;2.50;;;;;21.54;37.08;100573.56;5072567;27;45557;-65
2022/05/11 08:53:35;;;;;;;;;4.00;3.00;;;;;21.58;36.31;100573.19;5072542;27;45433;-65
2022/05/11 08:56:06;;;;;;;;;3.25;3.25;;;;;21.63;37.03;100567.47;5072622;28;45484;-65
2022/05/11 08:58:54;;;;;;;;;6.33;5.00;;;;;21.70;37.73;100583.88;5072542;27;45523;-65
2022/05/11 09:01:23;;;;;;;;;3.25;3.25;;;;;21.74;37.90;100569.25;5071907;27;45540;-65
2022/05/11 09:03:53;;;;;;;;;6.00;4.33;;;;;21.73;37.63;100571.06;5071125;28;45603;-66
2022/05/11 09:06:27;;;;;;;;;4.00;4.00;;;;;21.75;37.29;100582.50;5074534;28;45571;-65
2022/05/11 09:08:54;;;;;;;;;4.00;4.00;;;;;21.76;37.63;100569.97;5076054;27;45735;-65
2022/05/11 09:11:32;;;;;;;;;3.00;3.00;;;;;21.79;37.50;100581.28;5075990;27;45530;-64
2022/05/11 09:13:59;;;;;;;;;5.00;5.00;;;;;21.83;37.95;100576.53;5075880;27;46304;-65
2022/05/11 09:16:28;;;;;;;;;3.25;3.25;;;;;21.84;36.51;100583.56;5075921;27;45507;-65
2022/05/11 09:18:56;;;;;;;;;5.75;4.75;;;;;21.82;35.73;100581.03;5075790;27;45565;-65
2022/05/11 09:21:24;;;;;;;;;3.00;3.00;;;;;21.86;36.18;100581.63;5075765;27;45568;-65
2022/05/11 09:24:23;;;;;;;;;4.75;4.00;;;;;21.85;35.94;100582.59;5073920;28;48586;-65
2022/05/11 09:27:10;;;;;;;;;3.25;3.25;;;;;21.88;35.10;100581.50;5075383;27;46098;-65
2022/05/11 09:29:41;;;;;;;;;6.25;5.25;;;;;21.87;35.09;100577.97;5075733;27;45483;-64
2022/05/11 09:32:29;;;;;;;;;3.25;2.75;;;;;21.94;35.68;100592.53;5076051;27;45503;-65
2022/05/11 09:35:16;;;;;;;;;3.00;3.00;;;;;21.99;34.30;100576.94;5075254;27;45519;-65
2022/05/11 09:37:42;;;;;;;;;2.25;2.25;;;;;22.06;33.43;100569.25;5075407;28;45552;-65
2022/05/11 09:40:17;;;;;;;;;3.00;3.00;;;;;22.08;33.48;100578.00;5075461;28;45431;-65
2022/05/11 09:43:03;;;;;;;;;4.00;4.00;;;;;22.11;34.76;100571.53;5074055;28;45633;-65
2022/05/11 09:45:43;;;;;;;;;6.25;5.75;;;;;22.14;34.69;100576.63;5075724;28;46148;-65
2022/05/11 09:48:23;;;;;;;;;1.00;1.00;;;;;22.15;34.28;100568.47;5075635;27;45484;-65
2022/05/11 09:50:54;;;;;;;;;4.00;4.00;;;;;22.19;34.33;100559.25;5075532;27;45591;-65
2022/05/11 09:53:33;;;;;;;;;2.25;2.25;;;;;22.21;33.50;100573.31;5075542;27;45560;-65
2022/05/11 09:56:20;;;;;;;;;3.00;3.00;;;;;22.25;33.44;100565.91;5080724;27;48106;-65
2022/05/11 09:58:46;;;;;;;;;4.50;4.50;;;;;22.30;33.59;100570.84;5079603;27;45580;-68
2022/05/11 10:01:23;;;;;;;;;6.50;5.75;;;;;22.30;34.01;100565.50;5084172;27;45618;-68
2022/05/11 10:04:00;;;;;;;;;27.33;21.00;;;;;22.30;34.54;100569.03;5095602;27;45484;-69
2022/05/11 10:06:29;;;;;;;;;11.67;10.00;;;;;22.33;34.95;100555.38;5095298;27;46404;-69
2022/05/11 10:08:58;;;;;;;;;5.25;4.00;;;;;22.38;34.58;100566.56;5093952;27;45469;-68
2022/05/11 10:11:50;;;;;;;;;5.00;5.00;;;;;22.46;34.71;100560.50;5095517;27;45511;-69
2022/05/11 10:23:17;;;;;;;;;9.00;7.00;;;;;22.52;32.73;100562.69;5039162;27;45627;-69
2022/05/11 10:25:48;;;;;;;;;6.00;4.00;;;;;22.52;33.25;100573.41;5094954;27;45519;-69
2022/05/11 10:28:51;;;;;;;;;2.00;2.00;;;;;22.49;33.88;100568.31;5093410;27;46621;-68
2022/05/11 10:31:22;;;;;;;;;5.00;5.00;;;;;22.51;34.23;100566.34;5095391;27;45575;-68
2022/05/11 10:34:16;;;;;;;;;3.50;3.50;;;;;22.51;34.57;100571.69;5093828;27;45469;-69
2022/05/11 10:36:53;;;;;;;;;4.75;4.75;;;;;22.54;34.81;100576.81;5095461;27;45464;-69
2022/05/11 10:39:21;;;;;;;;;3.00;3.00;;;;;22.54;35.16;100566.09;5095014;27;45994;-69
2022/05/11 10:41:55;;;;;;;;;3.00;3.00;;;;;22.54;34.95;100579.50;5094807;27;45865;-69
2022/05/11 10:44:51;;;;;;;;;2.25;2.25;;;;;22.56;35.55;100577.50;5095007;27;45553;-68
2022/05/11 10:47:43;;;;;;;;;3.00;2.75;;;;;22.54;36.00;100570.56;5095330;27;45484;-69
2022/05/11 10:50:33;;;;;;;;;2.25;2.25;;;;;22.58;36.19;100564.84;5095113;27;46039;-69
2022/05/11 10:53:16;;;;;;;;;3.00;3.00;;;;;22.62;36.30;100568.09;5094613;27;45588;-68
2022/05/11 10:55:45;;;;;;;;;3.00;3.00;;;;;22.67;36.47;100555.13;5095255;27;45489;-68
2022/05/11 10:58:28;;;;;;;;;4.00;4.00;;;;;22.67;36.76;100555.13;5093108;27;45414;-68
2022/05/11 11:00:59;;;;;;;;;3.50;3.00;;;;;22.70;36.75;100555.75;5094075;27;46192;-69
2022/05/11 11:04:00;;;;;;;;;3.00;3.00;;;;;22.76;36.63;100554.34;5094540;27;45491;-69
2022/05/11 11:09:25;;;;;;;;;3.00;2.00;;;;;22.74;36.38;100544.75;5095501;27;45565;-68
2022/05/11 11:12:06;;;;;;;;;4.75;3.00;;;;;22.79;36.87;100559.44;5094261;27;45578;-68
2022/05/11 11:14:36;;;;;;;;;3.25;3.25;;;;;22.81;36.72;100540.50;5092853;27;45496;-68
2022/05/11 11:17:05;;;;;;;;;4.50;3.50;;;;;22.80;36.60;100546.88;5093577;27;45566;-69
2022/05/11 11:19:33;;;;;;;;;2.75;2.75;;;;;22.86;36.25;100535.59;5094283;27;45507;-69
2022/05/11 11:22:01;;;;;;;;;3.00;3.00;;;;;22.86;36.09;100533.78;5092503;27;46283;-68
2022/05/11 11:24:28;;;;;;;;;2.00;2.00;;;;;22.91;36.30;100533.38;5093958;27;45493;-69
2022/05/11 11:26:59;;;;;;;;;2.00;2.00;;;;;22.90;35.66;100524.47;5092035;27;45573;-68
2022/05/11 11:29:31;;;;;;;;;2.50;2.50;;;;;22.96;35.95;100536.53;5092106;27;45496;-68
2022/05/11 11:31:56;;;;;;;;;3.75;3.75;;;;;23.03;35.84;100518.91;5087625;27;46025;-69
2022/05/11 11:34:25;;;;;;;;;2.75;2.00;;;;;23.08;36.16;100531.94;5092186;27;45429;-65
2022/05/11 11:36:52;;;;;;;;;2.00;2.00;;;;;23.10;36.11;100517.34;5087145;27;45488;-66
2022/05/11 11:39:55;;;;;;;;;9.00;8.25;;;;;23.13;36.26;100517.13;5081024;27;45596;-65
2022/05/11 11:42:39;;;;;;;;;8.75;8.75;;;;;23.17;36.37;100512.31;5094284;27;46261;-64
2022/05/11 11:45:25;;;;;;;;;3.00;3.00;;;;;23.23;36.23;100519.78;5094515;27;45475;-63
2022/05/11 11:48:17;;;;;;;;;3.50;3.50;;;;;23.23;36.20;100509.06;5094455;27;45543;-64
2022/05/11 11:50:48;;;;;;;;;4.00;3.50;;;;;23.32;37.06;100516.31;5093516;27;45611;-68
2022/05/11 11:53:32;;;;;;;;;6.50;3.00;;;;;23.38;36.36;100506.84;5079447;27;45492;-69
2022/05/11 11:56:23;;;;;;;;;3.50;2.00;;;;;23.44;36.04;100508.97;5074027;27;45468;-69
2022/05/11 11:59:32;;;;;;;;;2.50;2.00;;;;;23.49;36.04;100520.13;5081405;27;45522;-69
2022/05/11 12:02:18;;;;;;;;;3.00;3.00;;;;;23.53;35.88;100515.31;5090392;27;45522;-69
2022/05/11 12:05:03;;;;;;;;;1.50;1.50;;;;;23.53;35.61;100513.47;5074332;27;45500;-69
2022/05/11 12:16:28;;;;;;;;;1.50;1.50;;;;;23.80;35.89;100501.22;5079160;27;45720;-69
2022/05/11 12:19:08;;;;;;;;;2.75;2.75;;;;;23.81;36.18;100516.38;5095159;27;45541;-66